Time;durP1;ratioP1;P1;durP2;ratioP2;P2;SDS_P1;SDS_P2;PMS_P1;PMS_P2;Temp;Humidity;BMP_temperature;BMP_pressure;BME280_temperature;BME280_humidity;BME280_pressure;Samples;Min_cycle;Max_cycle;Signal;HPM_P1;HPM_P2
2023/01/03 00:01:14;;;;;;;15.93;6.82;;;;;;;4.97;100.00;102460.13;4894923;29;20028;-89
2023/01/03 00:03:39;;;;;;;16.02;7.63;;;;;;;4.97;100.00;102471.81;4893889;29;20499;-90
2023/01/03 00:06:14;;;;;;;15.75;7.25;;;;;;;4.94;100.00;102470.97;4927047;29;20032;-90
2023/01/03 00:08:39;;;;;;;14.38;7.82;;;;;;;4.88;100.00;102457.66;4895494;29;20088;-91
2023/01/03 00:11:11;;;;;;;15.45;7.40;;;;;;;4.84;100.00;102460.41;4894366;29;20099;-90
2023/01/03 00:13:36;;;;;;;13.50;6.50;;;;;;;4.82;100.00;102462.25;4909480;29;20089;-91
2023/01/03 00:16:03;;;;;;;14.68;7.80;;;;;;;4.78;100.00;102449.75;4892707;29;20048;-90
2023/01/03 00:18:28;;;;;;;14.40;7.13;;;;;;;4.73;100.00;102456.19;4892514;29;20494;-89
2023/01/03 00:20:53;;;;;;;15.48;7.25;;;;;;;4.68;100.00;102458.97;4905163;29;20032;-90
2023/01/03 00:23:19;;;;;;;17.38;8.43;;;;;;;4.61;100.00;102457.31;4913489;29;20496;-90
2023/01/03 00:25:44;;;;;;;15.65;7.80;;;;;;;4.58;100.00;102452.03;4908958;29;20960;-91
2023/01/03 00:28:09;;;;;;;12.85;7.00;;;;;;;4.54;100.00;102453.00;4916844;29;20452;-90
2023/01/03 00:30:35;;;;;;;13.10;7.53;;;;;;;4.51;100.00;102459.34;4898788;29;20040;-90
2023/01/03 00:33:01;;;;;;;13.40;6.95;;;;;;;4.50;100.00;102462.06;4930274;29;20079;-90
2023/01/03 00:35:26;;;;;;;11.23;8.02;;;;;;;4.36;100.00;102454.28;4913634;29;20040;-90
2023/01/03 00:37:52;;;;;;;11.65;7.30;;;;;;;4.34;100.00;102453.44;4899220;29;20055;-90
2023/01/03 00:40:17;;;;;;;19.00;7.53;;;;;;;4.29;100.00;102458.00;4898504;29;20100;-91
2023/01/03 00:45:26;;;;;;;14.25;7.03;;;;;;;4.24;100.00;102479.69;4929994;29;20131;-90
2023/01/03 00:47:52;;;;;;;14.02;7.22;;;;;;;4.16;100.00;102472.66;4899858;29;20103;-90
2023/01/03 00:50:17;;;;;;;16.20;7.82;;;;;;;4.06;100.00;102470.16;4917475;29;20048;-90
2023/01/03 00:52:42;;;;;;;15.00;7.82;;;;;;;4.03;100.00;102483.66;4928697;29;20477;-90
2023/01/03 00:55:09;;;;;;;18.65;7.65;;;;;;;3.95;100.00;102474.81;4913949;29;20028;-91
2023/01/03 00:57:34;;;;;;;12.25;7.25;;;;;;;3.94;100.00;102475.75;4937075;29;20427;-90
2023/01/03 01:00:00;;;;;;;13.88;7.80;;;;;;;3.83;100.00;102472.38;4917095;29;20138;-89
2023/01/03 01:02:25;;;;;;;12.75;7.03;;;;;;;3.84;100.00;102480.44;4933078;29;20070;-92
2023/01/03 01:04:52;;;;;;;12.68;7.10;;;;;;;3.79;100.00;102482.31;4917062;29;20066;-91
2023/01/03 01:07:17;;;;;;;14.63;7.45;;;;;;;3.70;100.00;102478.91;4914769;29;20134;-90
2023/01/03 01:09:42;;;;;;;12.88;8.27;;;;;;;3.66;100.00;102486.13;4917069;29;20555;-90
2023/01/03 01:12:08;;;;;;;14.52;6.40;;;;;;;3.64;100.00;102490.66;4919623;29;20459;-90
2023/01/03 01:14:33;;;;;;;14.38;7.47;;;;;;;3.61;100.00;102500.59;4897973;29;20075;-91
2023/01/03 01:17:05;;;;;;;13.40;7.10;;;;;;;3.58;100.00;102490.75;4921400;29;20401;-90
2023/01/03 01:19:33;;;;;;;13.15;7.95;;;;;;;3.50;100.00;102488.22;4914352;29;20133;-90
2023/01/03 01:21:59;;;;;;;13.80;7.05;;;;;;;3.47;100.00;102500.81;4897498;29;20448;-90
2023/01/03 01:24:25;;;;;;;14.20;8.20;;;;;;;3.43;100.00;102493.69;4901960;29;20036;-90
2023/01/03 01:26:51;;;;;;;12.27;7.70;;;;;;;3.43;100.00;102504.47;4921960;29;20103;-91
2023/01/03 01:29:17;;;;;;;13.13;8.02;;;;;;;3.43;100.00;102509.84;4931449;29;20095;-91
2023/01/03 01:31:44;;;;;;;15.63;8.45;;;;;;;3.38;100.00;102501.84;4916617;29;20126;-90
2023/01/03 01:34:11;;;;;;;13.85;8.00;;;;;;;3.32;100.00;102500.16;4906741;29;20040;-90
2023/01/03 01:36:38;;;;;;;14.95;7.70;;;;;;;3.37;100.00;102515.34;4897260;29;20068;-90
2023/01/03 01:39:06;;;;;;;15.40;8.23;;;;;;;3.29;100.00;102508.25;4913285;29;20043;-90
2023/01/03 01:44:51;;;;;;;11.15;7.88;;;;;;;3.27;100.00;102523.53;4931182;29;20236;-90
2023/01/03 01:47:39;;;;;;;13.52;7.50;;;;;;;3.20;100.00;102520.97;4916259;29;20036;-90
2023/01/03 01:50:22;;;;;;;15.82;8.32;;;;;;;3.13;100.00;102532.72;4916972;29;20044;-90
2023/01/03 01:52:58;;;;;;;;;;;;;;;3.17;100.00;102531.75;4913494;29;20437;-91
2023/01/03 01:55:28;;;;;;;12.90;7.32;;;;;;;3.11;100.00;102545.28;4914279;29;19961;-89
2023/01/03 01:57:54;;;;;;;17.90;8.15;;;;;;;2.99;100.00;102531.13;4920697;29;20131;-89
2023/01/03 02:00:20;;;;;;;13.10;7.80;;;;;;;2.99;100.00;102547.25;4913871;29;20131;-91
2023/01/03 02:02:48;;;;;;;17.27;8.32;;;;;;;2.97;100.00;102549.06;4897698;29;20099;-91
2023/01/03 02:05:16;;;;;;;15.27;8.07;;;;;;;2.97;100.00;102549.06;4912629;29;20040;-91
2023/01/03 02:07:42;;;;;;;17.65;7.68;;;;;;;2.91;100.00;102548.25;4896464;29;20246;-91
2023/01/03 02:10:09;;;;;;;19.60;9.88;;;;;;;2.89;100.00;102544.69;4897363;29;20031;-90
2023/01/03 02:13:07;;;;;;;17.80;9.00;;;;;;;2.86;100.00;102545.63;4926696;29;20090;-91
2023/01/03 02:15:39;;;;;;;12.40;7.95;;;;;;;2.80;100.00;102533.16;4912814;29;20043;-91
2023/01/03 02:18:38;;;;;;;15.77;8.48;;;;;;;2.73;100.00;102534.13;4924400;29;20473;-91
2023/01/03 02:21:25;;;;;;;12.70;8.23;;;;;;;2.70;100.00;102541.34;4902329;29;20112;-91
2023/01/03 02:24:06;;;;;;;13.55;8.38;;;;;;;2.65;100.00;102551.25;4912892;29;20403;-91
2023/01/03 02:27:09;;;;;;;17.65;7.80;;;;;;;2.64;100.00;102545.00;4919945;29;20036;-91
2023/01/03 02:30:08;;;;;;;12.07;7.93;;;;;;;2.62;100.00;102546.84;4912402;29;20059;-90
2023/01/03 02:33:21;;;;;;;18.77;8.38;;;;;;;2.53;100.00;102541.56;4897036;29;20040;-91
2023/01/03 02:36:23;;;;;;;11.35;7.13;;;;;;;2.52;100.00;102553.22;4895831;29;20395;-91
2023/01/03 02:38:58;;;;;;;12.98;7.28;;;;;;;2.45;100.00;102554.19;4896790;29;20047;-90
2023/01/03 02:41:45;;;;;;;13.32;8.45;;;;;;;2.34;100.00;102540.00;4921716;29;20046;-91
2023/01/03 02:44:21;;;;;;;16.95;8.50;;;;;;;2.35;100.00;102533.72;4912153;29;20027;-91
2023/01/03 02:46:53;;;;;;;13.15;8.32;;;;;;;2.34;100.00;102545.38;4931046;29;20043;-91
2023/01/03 02:49:35;;;;;;;15.55;7.63;;;;;;;2.30;100.00;102541.81;4947404;29;20420;-91
2023/01/03 02:52:05;;;;;;;18.23;9.10;;;;;;;2.29;100.00;102540.06;4927502;29;20377;-90
2023/01/03 02:54:40;;;;;;;18.02;8.57;;;;;;;2.25;100.00;102536.50;4896386;29;20432;-90
2023/01/03 02:57:13;;;;;;;17.52;9.45;;;;;;;2.30;100.00;102544.50;4899671;29;20404;-91
2023/01/03 02:59:47;;;;;;;18.98;8.88;;;;;;;2.26;100.00;102537.41;4931129;29;20035;-91
2023/01/03 03:02:15;;;;;;;14.98;8.43;;;;;;;2.25;100.00;102532.94;4915443;29;20050;-91
2023/01/03 03:04:43;;;;;;;24.17;9.32;;;;;;;2.32;100.00;102544.47;4907477;29;20036;-90
2023/01/03 03:07:16;;;;;;;14.02;8.75;;;;;;;2.29;100.00;102545.44;4895580;29;20047;-91
2023/01/03 03:15:16;;;;;;;20.73;8.32;;;;;;;2.25;100.00;102549.03;4913426;29;20044;-91
2023/01/03 03:17:44;;;;;;;15.80;8.25;;;;;;;2.18;100.00;102539.25;4929912;29;20055;-91
2023/01/03 03:26:01;;;;;;;19.25;9.23;;;;;;;2.17;100.00;102540.16;4943164;28;20564;-91
2023/01/03 03:28:36;;;;;;;20.45;8.48;;;;;;;2.15;100.00;102540.19;4926342;29;20048;-90
2023/01/03 03:31:07;;;;;;;17.30;8.57;;;;;;;2.08;100.00;102533.09;4911845;29;20048;-91
2023/01/03 03:34:08;;;;;;;18.45;8.55;;;;;;;2.13;100.00;102538.41;4912099;29;20040;-92
2023/01/03 03:36:33;;;;;;;17.42;8.18;;;;;;;2.17;100.00;102543.75;4906028;29;20051;-90
2023/01/03 03:39:01;;;;;;;13.65;8.13;;;;;;;2.13;100.00;102533.06;4896153;29;20108;-90
2023/01/03 03:48:00;;;;;;;15.85;7.53;;;;;;;2.11;100.00;102537.56;4929308;29;20040;-91
2023/01/03 03:50:35;;;;;;;18.98;8.02;;;;;;;2.11;100.00;102541.13;4878568;29;20107;-91
2023/01/03 03:53:05;;;;;;;18.05;7.82;;;;;;;2.07;100.00;102530.44;4895622;29;20119;-91
2023/01/03 03:55:42;;;;;;;19.33;7.72;;;;;;;2.03;100.00;102529.56;4913562;29;20040;-90
2023/01/03 03:58:22;;;;;;;21.27;8.13;;;;;;;2.07;100.00;102541.19;4907648;29;20036;-90
2023/01/03 04:00:51;;;;;;;17.05;8.00;;;;;;;2.01;100.00;102528.72;4930973;29;20040;-90
2023/01/03 04:03:18;;;;;;;14.98;8.10;;;;;;;1.99;100.00;102534.06;4915123;29;20507;-91
2023/01/03 04:05:49;;;;;;;14.23;7.72;;;;;;;2.03;100.00;102545.69;4914128;29;20044;-90
2023/01/03 04:08:14;;;;;;;21.10;8.68;;;;;;;2.04;100.00;102552.81;4924862;29;20040;-91
2023/01/03 04:10:40;;;;;;;14.60;8.93;;;;;;;1.98;100.00;102545.72;4914823;29;20032;-90
2023/01/03 04:13:06;;;;;;;18.20;8.35;;;;;;;1.97;100.00;102538.59;4916353;29;20107;-90
2023/01/03 04:15:32;;;;;;;18.95;9.02;;;;;;;2.04;100.00;102553.69;4933810;29;20091;-90
2023/01/03 04:17:57;;;;;;;14.85;7.93;;;;;;;2.09;100.00;102550.97;4917963;29;20035;-90
2023/01/03 04:20:22;;;;;;;20.85;8.50;;;;;;;2.05;100.00;102543.84;4917709;29;20036;-90
2023/01/03 04:22:48;;;;;;;20.63;8.68;;;;;;;2.02;100.00;102539.44;4918775;29;20072;-90
2023/01/03 04:25:13;;;;;;;18.35;8.52;;;;;;;2.06;100.00;102537.59;4898551;29;20409;-90
2023/01/03 04:27:38;;;;;;;17.17;8.65;;;;;;;2.01;100.00;102521.53;4904270;29;20151;-90
2023/01/03 04:30:05;;;;;;;13.68;7.50;;;;;;;2.02;100.00;102528.69;4936564;29;20127;-90
2023/01/03 04:32:30;;;;;;;15.65;8.35;;;;;;;1.98;100.00;102526.94;4936480;29;20041;-90
2023/01/03 04:34:55;;;;;;;14.38;7.82;;;;;;;2.04;100.00;102542.09;4952058;29;20559;-90
2023/01/03 04:37:21;;;;;;;17.90;8.05;;;;;;;2.06;100.00;102534.03;4931988;29;20070;-90
2023/01/03 04:39:46;;;;;;;24.55;8.35;;;;;;;2.07;100.00;102530.44;4901783;29;20040;-89
2023/01/03 04:44:55;;;;;;;19.92;7.90;;;;;;;2.10;100.00;102538.44;4927947;29;20464;-90
2023/01/03 04:47:21;;;;;;;18.00;8.07;;;;;;;2.11;100.00;102538.44;4936395;29;20039;-90
2023/01/03 04:49:47;;;;;;;14.35;7.75;;;;;;;2.15;100.00;102542.88;4919601;29;20038;-90
2023/01/03 04:52:13;;;;;;;20.75;8.15;;;;;;;2.07;100.00;102528.63;4935661;29;20119;-90
2023/01/03 04:54:40;;;;;;;13.88;8.07;;;;;;;2.08;100.00;102530.41;4936481;29;20443;-90
2023/01/03 04:57:06;;;;;;;16.85;8.52;;;;;;;2.09;100.00;102533.97;4933971;29;20513;-90
2023/01/03 04:59:31;;;;;;;15.77;8.63;;;;;;;2.06;100.00;102534.91;4951721;29;20130;-91
2023/01/03 05:01:57;;;;;;;21.70;8.93;;;;;;;2.03;100.00;102538.50;4919732;29;20038;-90
2023/01/03 05:04:22;;;;;;;23.92;9.00;;;;;;;2.02;100.00;102527.81;4936269;29;20038;-90
2023/01/03 05:06:47;;;;;;;21.35;9.38;;;;;;;2.04;100.00;102534.03;4934497;29;20447;-91
2023/01/03 05:09:13;;;;;;;15.40;8.77;;;;;;;2.07;100.00;102549.22;4918769;29;20462;-90
2023/01/03 05:11:38;;;;;;;22.35;10.02;;;;;;;2.06;100.00;102536.72;4933693;29;20031;-90
2023/01/03 05:14:03;;;;;;;17.45;9.98;;;;;;;2.08;100.00;102527.72;4916631;29;20039;-90
2023/01/03 05:16:30;;;;;;;20.08;10.15;;;;;;;2.17;100.00;102522.25;4916602;29;20515;-90
2023/01/03 05:18:55;;;;;;;19.35;9.75;;;;;;;2.16;100.00;102531.22;4910075;29;20158;-91
2023/01/03 05:26:52;;;;;;;22.67;9.88;;;;;;;2.02;100.00;102515.28;4933679;29;20048;-90
2023/01/03 05:29:19;;;;;;;18.42;10.20;;;;;;;2.08;100.00;102530.41;4917446;29;20387;-90
2023/01/03 05:31:45;;;;;;;20.95;10.57;;;;;;;2.06;100.00;102524.19;4910349;29;20035;-90
2023/01/03 05:34:11;;;;;;;22.23;10.63;;;;;;;2.02;100.00;102526.00;4934946;29;20039;-90
2023/01/03 05:36:36;;;;;;;22.10;9.95;;;;;;;2.02;100.00;102527.81;4935181;29;20034;-90
2023/01/03 05:39:03;;;;;;;19.58;10.15;;;;;;;1.99;100.00;102519.78;4935333;29;20148;-90
2023/01/03 05:44:12;;;;;;;23.73;9.77;;;;;;;2.09;100.00;102520.56;4932606;29;20073;-90
2023/01/03 05:46:37;;;;;;;31.88;10.75;;;;;;;2.09;100.00;102512.50;4934900;29;20443;-90
2023/01/03 05:49:03;;;;;;;24.05;10.50;;;;;;;2.06;100.00;102512.56;4932889;29;20070;-90
2023/01/03 05:51:28;;;;;;;22.73;10.55;;;;;;;2.01;100.00;102505.44;4915441;29;20046;-91
2023/01/03 05:53:54;;;;;;;20.55;9.27;;;;;;;2.01;100.00;102512.59;4915579;29;20407;-90
2023/01/03 05:56:19;;;;;;;22.50;8.55;;;;;;;2.01;100.00;102520.66;4924845;29;20033;-91
2023/01/03 05:58:45;;;;;;;16.42;8.80;;;;;;;1.94;100.00;102513.56;4932922;29;20348;-90
2023/01/03 06:01:13;;;;;;;17.92;9.02;;;;;;;1.97;100.00;102518.91;4919027;29;20031;-90
2023/01/03 06:03:38;;;;;;;20.30;8.15;;;;;;;1.95;100.00;102507.28;4934207;29;20035;-90
2023/01/03 06:06:05;;;;;;;16.05;8.35;;;;;;;2.01;100.00;102518.88;4916425;29;20483;-90
2023/01/03 06:08:32;;;;;;;15.35;8.40;;;;;;;2.03;100.00;102514.34;4931412;29;20098;-90
2023/01/03 06:10:57;;;;;;;20.02;8.88;;;;;;;2.03;100.00;102494.69;4921015;29;20031;-90
2023/01/03 06:13:22;;;;;;;20.95;9.68;;;;;;;2.07;100.00;102501.81;4917711;29;20082;-91
2023/01/03 06:18:35;;;;;;;19.77;8.98;;;;;;;2.24;100.00;102497.16;4915443;29;20100;-90
2023/01/03 06:21:04;;;;;;;16.98;9.00;;;;;;;2.38;100.00;102510.41;4914462;29;20026;-91
2023/01/03 06:23:30;;;;;;;20.65;9.20;;;;;;;2.42;100.00;102511.25;4950585;28;20035;-90
2023/01/03 06:25:56;;;;;;;19.73;8.60;;;;;;;2.49;100.00;102504.91;4928001;28;20056;-91
2023/01/03 06:28:21;;;;;;;19.85;9.00;;;;;;;2.55;100.00;102500.31;4909244;29;20113;-90
2023/01/03 06:30:46;;;;;;;14.90;8.20;;;;;;;2.57;100.00;102486.00;4934479;29;20035;-91
2023/01/03 06:33:12;;;;;;;16.73;7.85;;;;;;;2.65;100.00;102497.53;4934404;29;20509;-91
2023/01/03 06:35:38;;;;;;;17.42;8.95;;;;;;;2.69;100.00;102489.41;4934038;29;20101;-90
2023/01/03 06:38:03;;;;;;;18.30;8.50;;;;;;;2.79;100.00;102491.06;4933266;29;20101;-90
2023/01/03 06:40:29;;;;;;;23.40;8.45;;;;;;;2.80;100.00;102486.59;4900350;29;20039;-91
2023/01/03 06:42:54;;;;;;;18.75;8.55;;;;;;;2.88;100.00;102500.78;4924927;29;20019;-91
2023/01/03 06:53:36;;;;;;;18.70;8.43;;;;;;;2.67;100.00;102495.72;4914969;29;20050;-90
2023/01/03 06:56:03;;;;;;;20.45;8.43;;;;;;;2.66;100.00;102501.97;4921933;29;20042;-90
2023/01/03 06:58:28;;;;;;;20.95;9.20;;;;;;;2.60;100.00;102481.47;4926267;29;20404;-91
2023/01/03 07:00:57;;;;;;;13.27;8.85;;;;;;;2.62;100.00;102484.16;4934199;29;20047;-89
2023/01/03 07:03:23;;;;;;;15.75;8.32;;;;;;;2.49;100.00;102467.28;4933376;29;20031;-91
2023/01/03 07:05:48;;;;;;;17.10;7.63;;;;;;;2.50;100.00;102472.63;4929196;29;20289;-90
2023/01/03 07:08:14;;;;;;;18.27;8.40;;;;;;;2.53;100.00;102486.03;4918121;29;20039;-90
2023/01/03 07:10:39;;;;;;;16.33;8.50;;;;;;;2.47;100.00;102478.06;4936621;28;20503;-91
2023/01/03 07:15:49;;;;;;;16.42;8.10;;;;;;;2.53;100.00;102486.03;4930079;29;20043;-91
2023/01/03 07:18:14;;;;;;;13.60;7.75;;;;;;;2.50;100.00;102490.56;4931948;29;20126;-91
2023/01/03 07:20:43;;;;;;;16.35;7.70;;;;;;;2.48;100.00;102524.63;4929739;29;20051;-91
2023/01/03 07:23:09;;;;;;;14.70;7.70;;;;;;;2.51;100.00;102522.75;4946436;29;20355;-92
2023/01/03 07:25:39;;;;;;;13.88;7.80;;;;;;;2.52;100.00;102524.56;4919681;29;20047;-90
2023/01/03 07:28:12;;;;;;;17.65;7.35;;;;;;;2.63;100.00;102520.84;4926183;29;20051;-92
2023/01/03 07:30:41;;;;;;;11.10;7.45;;;;;;;2.78;100.00;102517.97;4917623;29;20130;-90
2023/01/03 07:33:08;;;;;;;23.23;7.70;;;;;;;2.79;100.00;102491.06;4902562;29;20399;-91
2023/01/03 07:35:35;;;;;;;19.17;8.82;;;;;;;3.00;100.00;102502.44;4937400;29;20579;-91
2023/01/03 07:38:03;;;;;;;22.30;9.15;;;;;;;3.05;100.00;102492.50;4938005;29;20288;-93
2023/01/03 07:40:29;;;;;;;24.58;8.77;;;;;;;3.22;100.00;102495.84;4936057;29;20129;-90
2023/01/03 07:45:42;;;;;;;20.90;8.52;;;;;;;3.48;100.00;102513.34;4918733;29;20063;-92
2023/01/03 07:48:08;;;;;;;18.10;9.23;;;;;;;3.56;100.00;102517.69;4919078;29;20479;-91
2023/01/03 07:50:37;;;;;;;21.92;9.15;;;;;;;3.60;100.00;102507.78;4922262;29;20546;-91
2023/01/03 07:53:04;;;;;;;24.08;9.35;;;;;;;3.61;100.00;102504.16;4921533;29;20039;-91
2023/01/03 07:55:34;;;;;;;22.40;8.73;;;;;;;3.71;100.00;102527.31;4936176;29;20035;-92
2023/01/03 07:58:00;;;;;;;23.83;10.38;;;;;;;3.73;100.00;102521.88;4928692;29;20031;-92
2023/01/03 08:00:26;;;;;;;20.92;9.43;;;;;;;3.79;100.00;102530.75;4937410;29;20023;-91
2023/01/03 08:02:53;;;;;;;24.65;10.20;;;;;;;3.77;100.00;102529.88;4937303;29;20035;-92
2023/01/03 08:05:19;;;;;;;17.48;8.93;;;;;;;3.73;100.00;102527.28;4937448;29;20043;-90
2023/01/03 08:07:47;;;;;;;19.17;8.80;;;;;;;3.70;100.00;102530.03;4921562;29;20046;-93
2023/01/03 08:15:44;;;;;;;25.48;10.70;;;;;;;3.89;100.00;102544.94;4938589;29;20053;-92
2023/01/03 08:18:10;;;;;;;21.75;9.73;;;;;;;3.95;100.00;102541.25;4921939;29;20130;-92
2023/01/03 08:20:36;;;;;;;27.48;10.73;;;;;;;4.05;100.00;102540.16;4936254;29;20035;-93
2023/01/03 08:23:01;;;;;;;25.42;10.75;;;;;;;4.03;100.00;102534.81;4938454;29;20724;-92
2023/01/03 08:25:27;;;;;;;28.23;11.40;;;;;;;4.23;100.00;102556.00;4935762;29;20042;-93
2023/01/03 08:27:52;;;;;;;24.27;10.88;;;;;;;4.23;100.00;102547.03;4936651;29;20066;-92
2023/01/03 08:30:18;;;;;;;23.83;11.23;;;;;;;4.33;100.00;102551.31;4937256;29;20118;-91
2023/01/03 08:32:43;;;;;;;24.42;10.05;;;;;;;4.35;100.00;102541.41;4920531;29;20593;-90
2023/01/03 08:35:10;;;;;;;24.23;11.43;;;;;;;4.40;100.00;102541.34;4902007;29;20395;-92
2023/01/03 08:37:35;;;;;;;26.90;10.98;;;;;;;4.50;100.00;102551.88;4917709;29;20039;-92
2023/01/03 08:40:03;;;;;;;31.17;12.35;;;;;;;4.50;100.00;102545.63;4918139;29;20050;-91
2023/01/03 08:42:30;;;;;;;26.40;10.82;;;;;;;4.61;100.00;102563.34;4924865;29;20133;-92
2023/01/03 08:45:01;;;;;;;22.45;10.23;;;;;;;4.64;100.00;102558.81;4920868;29;20062;-92
2023/01/03 08:47:28;;;;;;;29.15;11.57;;;;;;;4.68;100.00;102572.19;4936631;29;20027;-92
2023/01/03 08:49:55;;;;;;;26.50;11.20;;;;;;;4.70;100.00;102569.47;4920582;29;20062;-91
2023/01/03 08:52:20;;;;;;;24.30;11.57;;;;;;;4.74;100.00;102558.59;4920541;29;20041;-91
2023/01/03 08:54:45;;;;;;;20.33;9.27;;;;;;;4.81;100.00;102565.66;4936332;29;20126;-92
2023/01/03 08:57:11;;;;;;;25.73;10.77;;;;;;;4.82;100.00;102564.72;4931243;29;20028;-91
2023/01/03 08:59:36;;;;;;;28.23;11.15;;;;;;;4.89;100.00;102576.25;4920092;29;20035;-91
2023/01/03 09:02:02;;;;;;;26.95;11.27;;;;;;;4.91;100.00;102573.53;4936193;29;20047;-92
2023/01/03 09:04:28;;;;;;;25.52;12.00;;;;;;;4.97;100.00;102576.09;4936032;29;20365;-90
2023/01/03 09:06:53;;;;;;;26.15;11.20;;;;;;;5.00;100.00;102574.22;4936408;29;20505;-92
2023/01/03 09:09:18;;;;;;;24.55;11.18;;;;;;;5.02;100.00;102566.09;4920460;29;20137;-92
2023/01/03 09:11:44;;;;;;;27.92;11.45;;;;;;;5.06;100.00;102579.47;4927266;29;20127;-92
2023/01/03 09:14:09;;;;;;;25.67;11.18;;;;;;;5.08;100.00;102579.44;4932007;29;20027;-91
2023/01/03 09:16:35;;;;;;;24.48;11.43;;;;;;;5.15;100.00;102589.19;4915739;29;20036;-91
2023/01/03 09:19:01;;;;;;;24.63;11.57;;;;;;;5.19;100.00;102590.03;4916614;29;20047;-91
2023/01/03 09:21:27;;;;;;;29.20;11.48;;;;;;;5.25;100.00;102588.06;4906071;29;20558;-91
2023/01/03 09:23:53;;;;;;;26.13;11.85;;;;;;;5.25;100.00;102574.56;4936011;29;20035;-90
2023/01/03 09:26:18;;;;;;;25.55;11.20;;;;;;;5.29;100.00;102573.59;4939954;29;20497;-91
2023/01/03 09:28:44;;;;;;;24.05;10.85;;;;;;;5.36;100.00;102579.72;4928466;29;20062;-91
2023/01/03 09:31:09;;;;;;;22.92;10.27;;;;;;;5.36;100.00;102580.63;4916815;29;20046;-91
2023/01/03 09:33:34;;;;;;;23.15;10.50;;;;;;;5.40;100.00;102580.53;4915260;29;20383;-91
2023/01/03 09:36:00;;;;;;;20.42;10.55;;;;;;;5.46;100.00;102584.00;4919414;29;20030;-91
2023/01/03 09:38:25;;;;;;;28.02;12.15;;;;;;;5.52;100.00;102591.94;4934521;29;20509;-91
2023/01/03 09:41:04;;;;;;;28.10;12.45;;;;;;;5.51;100.00;102574.00;4932091;29;20038;-92
2023/01/03 09:43:46;;;;;;;22.75;11.18;;;;;;;5.60;100.00;102575.59;4918490;29;20035;-89
2023/01/03 09:46:26;;;;;;;22.98;10.48;;;;;;;5.62;100.00;102571.03;4936056;29;20517;-91
2023/01/03 09:48:54;;;;;;;22.10;9.90;;;;;;;5.67;100.00;102573.59;4918975;29;20397;-91
2023/01/03 10:03:52;;;;;;;21.58;10.77;;;;;;;5.88;100.00;102581.19;4932946;29;20511;-91
2023/01/03 10:06:14;;;;;;;20.73;9.90;;;;;;;5.92;100.00;102580.19;4909118;29;20059;-91
2023/01/03 10:09:10;;;;;;;21.05;10.05;;;;;;;5.94;100.00;102572.06;4940939;29;20117;-90
2023/01/03 10:11:59;;;;;;;20.67;8.65;;;;;;;6.02;100.00;102565.56;4911001;29;20058;-91
2023/01/03 10:14:48;;;;;;;23.67;9.02;;;;;;;6.09;100.00;102577.06;4896447;29;20051;-91
2023/01/03 10:17:28;;;;;;;18.83;8.52;;;;;;;6.13;100.00;102576.97;4931284;29;20403;-91
2023/01/03 10:20:13;;;;;;;24.05;8.68;;;;;;;6.16;100.00;102575.13;4930305;29;20046;-90
2023/01/03 10:22:39;;;;;;;19.85;8.07;;;;;;;6.21;100.00;102568.66;4917809;29;20043;-91
2023/01/03 10:25:18;;;;;;;17.70;8.35;;;;;;;6.26;100.00;102571.25;4931049;29;20494;-90
2023/01/03 10:27:45;;;;;;;18.75;8.10;;;;;;;6.30;100.00;102573.81;4913407;29;20122;-91
2023/01/03 10:30:17;;;;;;;14.93;7.88;;;;;;;6.36;100.00;102579.06;4915224;29;20114;-91
2023/01/03 10:33:12;;;;;;;15.45;7.38;;;;;;;6.33;100.00;102567.44;4914877;29;20044;-90
2023/01/03 10:35:37;;;;;;;16.80;7.28;;;;;;;6.44;100.00;102575.28;4916635;29;20391;-89
2023/01/03 10:38:02;;;;;;;20.08;7.82;;;;;;;6.52;100.00;102579.50;4917877;29;20114;-90
2023/01/03 10:40:35;;;;;;;15.90;7.93;;;;;;;6.57;100.00;102582.97;4917447;29;20093;-91
2023/01/03 10:43:17;;;;;;;23.52;8.02;;;;;;;6.61;100.00;102576.53;4932628;29;20031;-90
2023/01/03 10:45:52;;;;;;;13.23;7.72;;;;;;;6.58;100.00;102562.25;4934302;29;20065;-90
2023/01/03 10:48:17;;;;;;;16.17;8.05;;;;;;;6.66;100.00;102576.41;4933629;29;20462;-91
2023/01/03 10:50:43;;;;;;;15.70;7.85;;;;;;;6.69;100.00;102570.94;4933173;29;20035;-90
2023/01/03 10:53:12;;;;;;;13.15;7.10;;;;;;;6.69;100.00;102567.34;4930327;29;20059;-90
2023/01/03 10:55:46;;;;;;;15.90;7.13;;;;;;;6.74;100.00;102577.09;4930719;29;20044;-90
2023/01/03 10:58:26;;;;;;;11.43;6.97;;;;;;;6.74;100.00;102550.03;4922101;29;20495;-90
2023/01/03 11:00:54;;;;;;;14.55;7.00;;;;;;;6.83;100.00;102563.31;4918255;29;20046;-91
2023/01/03 11:03:25;;;;;;;14.68;6.70;;;;;;;6.84;100.00;102564.19;4933798;29;20081;-90
2023/01/03 11:05:56;;;;;;;16.38;6.60;;;;;;;6.88;100.00;102555.94;4917765;29;20047;-90
2023/01/03 11:08:37;;;;;;;14.02;6.45;;;;;;;6.89;100.00;102559.53;4934262;29;20062;-91
2023/01/03 11:11:02;;;;;;;14.40;6.55;;;;;;;6.75;100.00;102546.41;4913522;29;20046;-93
2023/01/03 11:13:41;;;;;;;14.43;6.97;;;;;;;6.85;100.00;102566.88;4930092;29;20039;-90
2023/01/03 11:16:16;;;;;;;14.15;6.80;;;;;;;6.89;100.00;102568.53;4949804;28;20051;-91
2023/01/03 11:18:43;;;;;;;11.95;6.72;;;;;;;6.88;100.00;102558.66;4931988;29;20487;-90
2023/01/03 11:21:15;;;;;;;15.20;6.60;;;;;;;6.87;100.00;102559.59;4933167;29;20046;-90
2023/01/03 11:24:33;;;;;;;14.97;6.27;;;;;;;6.89;100.00;102559.53;4917475;29;20365;-91
2023/01/03 11:27:14;;;;;;;14.18;6.50;;;;;;;6.84;100.00;102548.84;4888552;29;20052;-90
2023/01/03 11:30:16;;;;;;;18.45;7.25;;;;;;;6.89;100.00;102559.53;4916925;29;20065;-90
2023/01/03 11:33:18;;;;;;;17.17;6.65;;;;;;;6.88;100.00;102555.94;4911653;29;20503;-91
2023/01/03 11:35:56;;;;;;;18.73;7.00;;;;;;;6.87;100.00;102554.16;4944868;29;20043;-90
2023/01/03 11:38:51;;;;;;;12.32;6.90;;;;;;;6.87;100.00;102559.59;4914775;29;20062;-89
2023/01/03 11:42:07;;;;;;;14.65;7.35;;;;;;;6.90;100.00;102556.81;4905167;29;20069;-90
2023/01/03 11:45:04;;;;;;;18.33;7.38;;;;;;;6.94;100.00;102551.28;4890226;29;20051;-90
2023/01/03 11:47:53;;;;;;;17.85;8.07;;;;;;;6.96;100.00;102549.44;4914293;29;20492;-91
2023/01/03 11:50:49;;;;;;;14.77;8.60;;;;;;;6.92;100.00;102548.63;4914675;29;20044;-89
2023/01/03 11:53:30;;;;;;;19.75;7.10;;;;;;;6.96;100.00;102549.44;4927476;29;20042;-90
2023/01/03 11:56:36;;;;;;;12.07;7.80;;;;;;;7.00;100.00;102541.19;4916623;29;20039;-89
2023/01/03 11:59:15;;;;;;;14.43;7.68;;;;;;;7.00;100.00;102534.88;4930631;29;20122;-91
2023/01/03 12:01:59;;;;;;;13.20;6.85;;;;;;;7.02;100.00;102539.28;4917109;29;20399;-90
2023/01/03 12:04:30;;;;;;;12.95;6.82;;;;;;;7.04;100.00;102533.81;4916918;29;20399;-89
2023/01/03 12:07:15;;;;;;;14.40;6.93;;;;;;;7.03;100.00;102530.22;4931900;29;20039;-90
2023/01/03 12:09:58;;;;;;;13.07;6.38;;;;;;;7.05;100.00;102530.22;4933060;29;20454;-90
2023/01/03 12:12:32;;;;;;;11.73;6.07;;;;;;;7.11;100.00;102522.78;4902052;29;20130;-89
2023/01/03 12:15:11;;;;;;;14.80;5.68;;;;;;;7.13;100.00;102509.19;4913611;29;20039;-89
2023/01/03 12:17:50;;;;;;;9.98;5.03;;;;;;;7.19;100.00;102508.13;4913555;29;20059;-89
2023/01/03 12:20:22;;;;;;;6.70;3.85;;;;;;;7.26;100.00;102502.44;4916511;29;20442;-90
2023/01/03 12:22:53;;;;;;;13.00;4.13;;;;;;;7.34;100.00;102502.22;4916734;29;20043;-89
2023/01/03 12:25:28;;;;;;;6.50;3.83;;;;;;;7.41;100.00;102504.69;4916133;29;20414;-88
2023/01/03 12:28:06;;;;;;;6.03;3.65;;;;;;;7.43;100.00;102491.09;4918878;29;20526;-88
2023/01/03 12:30:44;;;;;;;5.60;3.88;;;;;;;7.48;99.19;102491.81;4919922;29;20495;-89
2023/01/03 12:33:21;;;;;;;7.07;3.90;;;;;;;7.54;99.17;102493.44;4931975;29;20437;-89
2023/01/03 12:36:01;;;;;;;8.93;4.00;;;;;;;7.52;97.25;102485.38;4900362;29;20043;-89
2023/01/03 12:38:34;;;;;;;10.68;4.10;;;;;;;7.52;97.89;102485.38;4917041;29;20398;-90
2023/01/03 12:41:21;;;;;;;7.88;4.07;;;;;;;7.56;97.82;102489.75;4919293;29;20031;-89
2023/01/03 12:44:03;;;;;;;6.63;4.05;;;;;;;7.60;98.00;102494.13;4934138;29;20122;-88